sensor_id;sensor_type;location;lat;lon;timestamp;temperature;humidity
2539;DHT22;1280;49.760;9.664;2022-10-16T00:01:04;17.80;87.50
2539;DHT22;1280;49.760;9.664;2022-10-16T00:03:32;17.80;87.50
2539;DHT22;1280;49.760;9.664;2022-10-16T00:06:01;17.80;87.50
2539;DHT22;1280;49.760;9.664;2022-10-16T00:08:30;17.90;87.50
2539;DHT22;1280;49.760;9.664;2022-10-16T00:11:04;17.80;87.50
2539;DHT22;1280;49.760;9.664;2022-10-16T00:13:34;17.80;87.50
2539;DHT22;1280;49.760;9.664;2022-10-16T00:16:03;17.80;87.50
2539;DHT22;1280;49.760;9.664;2022-10-16T00:18:31;17.80;87.60
2539;DHT22;1280;49.760;9.664;2022-10-16T00:21:02;17.80;87.60
2539;DHT22;1280;49.760;9.664;2022-10-16T00:23:31;17.80;87.60
2539;DHT22;1280;49.760;9.664;2022-10-16T00:26:04;17.80;87.60
2539;DHT22;1280;49.760;9.664;2022-10-16T00:28:33;17.80;87.60
2539;DHT22;1280;49.760;9.664;2022-10-16T00:31:03;17.80;87.60
2539;DHT22;1280;49.760;9.664;2022-10-16T00:33:31;17.80;87.60
2539;DHT22;1280;49.760;9.664;2022-10-16T00:36:00;17.80;87.60
2539;DHT22;1280;49.760;9.664;2022-10-16T00:38:28;17.80;87.60
2539;DHT22;1280;49.760;9.664;2022-10-16T00:40:56;17.80;87.70
2539;DHT22;1280;49.760;9.664;2022-10-16T00:43:38;17.80;87.70
2539;DHT22;1280;49.760;9.664;2022-10-16T00:46:15;17.80;87.70
2539;DHT22;1280;49.760;9.664;2022-10-16T00:48:48;17.80;87.70
2539;DHT22;1280;49.760;9.664;2022-10-16T00:51:21;17.80;87.70
2539;DHT22;1280;49.760;9.664;2022-10-16T00:53:50;17.80;87.70
2539;DHT22;1280;49.760;9.664;2022-10-16T00:56:19;17.80;87.70
2539;DHT22;1280;49.760;9.664;2022-10-16T00:58:48;17.80;87.70
2539;DHT22;1280;49.760;9.664;2022-10-16T01:01:16;17.80;87.70
2539;DHT22;1280;49.760;9.664;2022-10-16T01:03:44;17.80;87.70
2539;DHT22;1280;49.760;9.664;2022-10-16T01:06:21;17.80;87.70
2539;DHT22;1280;49.760;9.664;2022-10-16T01:09:07;17.80;87.70
2539;DHT22;1280;49.760;9.664;2022-10-16T01:11:44;17.80;87.70
2539;DHT22;1280;49.760;9.664;2022-10-16T01:14:20;17.80;87.70
2539;DHT22;1280;49.760;9.664;2022-10-16T01:16:53;17.80;87.70
2539;DHT22;1280;49.760;9.664;2022-10-16T01:19:36;17.70;87.90
2539;DHT22;1280;49.760;9.664;2022-10-16T01:22:09;17.70;87.90
2539;DHT22;1280;49.760;9.664;2022-10-16T01:24:39;17.70;88.00
2539;DHT22;1280;49.760;9.664;2022-10-16T01:27:12;17.70;88.00
2539;DHT22;1280;49.760;9.664;2022-10-16T01:29:48;17.70;88.10
2539;DHT22;1280;49.760;9.664;2022-10-16T01:32:28;17.70;88.00
2539;DHT22;1280;49.760;9.664;2022-10-16T01:35:00;17.70;88.00
2539;DHT22;1280;49.760;9.664;2022-10-16T01:37:35;17.70;88.00
2539;DHT22;1280;49.760;9.664;2022-10-16T01:40:07;17.70;88.10
2539;DHT22;1280;49.760;9.664;2022-10-16T01:42:41;17.70;88.10
2539;DHT22;1280;49.760;9.664;2022-10-16T01:45:13;17.70;88.10
2539;DHT22;1280;49.760;9.664;2022-10-16T01:47:45;17.70;88.10
2539;DHT22;1280;49.760;9.664;2022-10-16T01:50:15;17.70;88.10
2539;DHT22;1280;49.760;9.664;2022-10-16T01:52:46;17.70;88.10
2539;DHT22;1280;49.760;9.664;2022-10-16T01:55:18;17.70;88.10
2539;DHT22;1280;49.760;9.664;2022-10-16T01:57:50;17.70;88.10
2539;DHT22;1280;49.760;9.664;2022-10-16T02:00:20;17.70;88.10
2539;DHT22;1280;49.760;9.664;2022-10-16T02:02:53;17.70;88.10
2539;DHT22;1280;49.760;9.664;2022-10-16T02:05:25;17.70;88.10
2539;DHT22;1280;49.760;9.664;2022-10-16T02:07:54;17.70;88.10
2539;DHT22;1280;49.760;9.664;2022-10-16T02:10:26;17.70;88.10
2539;DHT22;1280;49.760;9.664;2022-10-16T02:13:03;17.70;88.10
2539;DHT22;1280;49.760;9.664;2022-10-16T02:15:32;17.80;88.20
2539;DHT22;1280;49.760;9.664;2022-10-16T02:18:01;17.70;88.10
2539;DHT22;1280;49.760;9.664;2022-10-16T02:20:32;17.80;88.20
2539;DHT22;1280;49.760;9.664;2022-10-16T02:23:01;17.70;88.10
2539;DHT22;1280;49.760;9.664;2022-10-16T02:25:32;17.70;88.20
2539;DHT22;1280;49.760;9.664;2022-10-16T02:28:07;17.70;88.30
2539;DHT22;1280;49.760;9.664;2022-10-16T02:30:43;17.70;88.30
2539;DHT22;1280;49.760;9.664;2022-10-16T02:33:14;17.80;88.30
2539;DHT22;1280;49.760;9.664;2022-10-16T02:35:45;17.80;88.30
2539;DHT22;1280;49.760;9.664;2022-10-16T02:38:15;17.80;88.30
2539;DHT22;1280;49.760;9.664;2022-10-16T02:40:44;17.80;88.30
2539;DHT22;1280;49.760;9.664;2022-10-16T02:43:13;17.80;88.30
2539;DHT22;1280;49.760;9.664;2022-10-16T02:45:42;17.80;88.20
2539;DHT22;1280;49.760;9.664;2022-10-16T02:48:10;17.80;88.20
2539;DHT22;1280;49.760;9.664;2022-10-16T02:50:38;17.80;88.20
2539;DHT22;1280;49.760;9.664;2022-10-16T02:53:06;17.80;88.20
2539;DHT22;1280;49.760;9.664;2022-10-16T02:55:34;17.80;88.20
2539;DHT22;1280;49.760;9.664;2022-10-16T02:58:02;17.80;88.10
2539;DHT22;1280;49.760;9.664;2022-10-16T03:00:32;17.80;88.10
2539;DHT22;1280;49.760;9.664;2022-10-16T03:03:00;17.80;88.10
2539;DHT22;1280;49.760;9.664;2022-10-16T03:05:28;17.80;88.10
2539;DHT22;1280;49.760;9.664;2022-10-16T03:07:56;17.80;88.10
2539;DHT22;1280;49.760;9.664;2022-10-16T03:10:27;17.80;88.10
2539;DHT22;1280;49.760;9.664;2022-10-16T03:12:55;17.80;88.10
2539;DHT22;1280;49.760;9.664;2022-10-16T03:15:23;17.80;88.20
2539;DHT22;1280;49.760;9.664;2022-10-16T03:17:52;17.70;88.10
2539;DHT22;1280;49.760;9.664;2022-10-16T03:20:20;17.70;88.20
2539;DHT22;1280;49.760;9.664;2022-10-16T03:22:48;17.70;88.20
2539;DHT22;1280;49.760;9.664;2022-10-16T03:25:16;17.70;88.20
2539;DHT22;1280;49.760;9.664;2022-10-16T03:27:44;17.70;88.30
2539;DHT22;1280;49.760;9.664;2022-10-16T03:30:12;17.70;88.30
2539;DHT22;1280;49.760;9.664;2022-10-16T03:32:40;17.80;88.20
2539;DHT22;1280;49.760;9.664;2022-10-16T03:35:10;17.80;88.20
2539;DHT22;1280;49.760;9.664;2022-10-16T03:37:38;17.80;88.20
2539;DHT22;1280;49.760;9.664;2022-10-16T03:40:07;17.80;88.20
2539;DHT22;1280;49.760;9.664;2022-10-16T03:42:35;17.80;88.10
2539;DHT22;1280;49.760;9.664;2022-10-16T03:45:03;17.80;88.10
2539;DHT22;1280;49.760;9.664;2022-10-16T03:47:31;17.80;88.10
2539;DHT22;1280;49.760;9.664;2022-10-16T03:50:00;17.80;88.10
2539;DHT22;1280;49.760;9.664;2022-10-16T03:52:29;17.80;88.10
2539;DHT22;1280;49.760;9.664;2022-10-16T03:54:59;17.80;88.00
2539;DHT22;1280;49.760;9.664;2022-10-16T03:57:26;17.70;88.00
2539;DHT22;1280;49.760;9.664;2022-10-16T03:59:55;17.70;88.00
2539;DHT22;1280;49.760;9.664;2022-10-16T04:02:23;17.70;88.00
2539;DHT22;1280;49.760;9.664;2022-10-16T04:04:51;17.70;88.10
2539;DHT22;1280;49.760;9.664;2022-10-16T04:07:19;17.70;88.10
2539;DHT22;1280;49.760;9.664;2022-10-16T04:09:48;17.70;88.10
2539;DHT22;1280;49.760;9.664;2022-10-16T04:12:18;17.70;88.10
2539;DHT22;1280;49.760;9.664;2022-10-16T04:14:46;17.70;88.10
2539;DHT22;1280;49.760;9.664;2022-10-16T04:17:15;17.70;88.10
2539;DHT22;1280;49.760;9.664;2022-10-16T04:19:43;17.70;88.10
2539;DHT22;1280;49.760;9.664;2022-10-16T04:22:11;17.70;88.10
2539;DHT22;1280;49.760;9.664;2022-10-16T04:24:40;17.70;88.00
2539;DHT22;1280;49.760;9.664;2022-10-16T04:27:09;17.70;88.10
2539;DHT22;1280;49.760;9.664;2022-10-16T04:29:37;17.70;88.10
2539;DHT22;1280;49.760;9.664;2022-10-16T04:32:05;17.70;88.00
2539;DHT22;1280;49.760;9.664;2022-10-16T04:34:33;17.70;88.00
2539;DHT22;1280;49.760;9.664;2022-10-16T04:37:01;17.70;88.00
2539;DHT22;1280;49.760;9.664;2022-10-16T04:39:29;17.70;88.00
2539;DHT22;1280;49.760;9.664;2022-10-16T04:41:57;17.70;88.00
2539;DHT22;1280;49.760;9.664;2022-10-16T04:44:26;17.70;88.00
2539;DHT22;1280;49.760;9.664;2022-10-16T04:46:54;17.70;88.00
2539;DHT22;1280;49.760;9.664;2022-10-16T04:49:22;17.70;88.00
2539;DHT22;1280;49.760;9.664;2022-10-16T04:51:50;17.80;88.00
2539;DHT22;1280;49.760;9.664;2022-10-16T04:54:18;17.70;87.90
2539;DHT22;1280;49.760;9.664;2022-10-16T04:56:46;17.70;88.00
2539;DHT22;1280;49.760;9.664;2022-10-16T04:59:17;17.70;88.00
2539;DHT22;1280;49.760;9.664;2022-10-16T05:01:46;17.70;88.00
2539;DHT22;1280;49.760;9.664;2022-10-16T05:04:15;17.70;88.00
2539;DHT22;1280;49.760;9.664;2022-10-16T05:06:43;17.70;87.90
2539;DHT22;1280;49.760;9.664;2022-10-16T05:09:11;17.80;87.90
2539;DHT22;1280;49.760;9.664;2022-10-16T05:11:39;17.70;87.90
2539;DHT22;1280;49.760;9.664;2022-10-16T05:14:07;17.70;87.90
2539;DHT22;1280;49.760;9.664;2022-10-16T05:16:40;17.70;87.80
2539;DHT22;1280;49.760;9.664;2022-10-16T05:19:09;17.70;87.90
2539;DHT22;1280;49.760;9.664;2022-10-16T05:21:54;17.70;87.90
2539;DHT22;1280;49.760;9.664;2022-10-16T05:24:22;17.70;87.80
2539;DHT22;1280;49.760;9.664;2022-10-16T05:26:51;17.70;87.80
2539;DHT22;1280;49.760;9.664;2022-10-16T05:29:19;17.70;87.80
2539;DHT22;1280;49.760;9.664;2022-10-16T05:31:49;17.70;87.80
2539;DHT22;1280;49.760;9.664;2022-10-16T05:34:18;17.70;87.80
2539;DHT22;1280;49.760;9.664;2022-10-16T05:36:46;17.70;87.80
2539;DHT22;1280;49.760;9.664;2022-10-16T05:39:15;17.70;87.80
2539;DHT22;1280;49.760;9.664;2022-10-16T05:41:43;17.70;87.80
2539;DHT22;1280;49.760;9.664;2022-10-16T05:44:11;17.70;87.80
2539;DHT22;1280;49.760;9.664;2022-10-16T05:46:39;17.70;87.90
2539;DHT22;1280;49.760;9.664;2022-10-16T05:49:07;17.70;87.80
2539;DHT22;1280;49.760;9.664;2022-10-16T05:51:36;17.70;87.90
2539;DHT22;1280;49.760;9.664;2022-10-16T05:54:04;17.70;87.90
2539;DHT22;1280;49.760;9.664;2022-10-16T05:56:32;17.70;87.90
2539;DHT22;1280;49.760;9.664;2022-10-16T05:59:00;17.70;87.90
2539;DHT22;1280;49.760;9.664;2022-10-16T06:01:28;17.70;87.90
2539;DHT22;1280;49.760;9.664;2022-10-16T06:03:57;17.70;87.90
2539;DHT22;1280;49.760;9.664;2022-10-16T06:06:27;17.70;87.90
2539;DHT22;1280;49.760;9.664;2022-10-16T06:08:57;17.70;87.90
2539;DHT22;1280;49.760;9.664;2022-10-16T06:11:28;17.70;87.80
2539;DHT22;1280;49.760;9.664;2022-10-16T06:13:58;17.70;87.80
2539;DHT22;1280;49.760;9.664;2022-10-16T06:16:28;17.70;87.80
2539;DHT22;1280;49.760;9.664;2022-10-16T06:18:56;17.70;87.80
2539;DHT22;1280;49.760;9.664;2022-10-16T06:21:27;17.80;87.70
2539;DHT22;1280;49.760;9.664;2022-10-16T06:23:56;17.80;87.70
2539;DHT22;1280;49.760;9.664;2022-10-16T06:26:27;17.80;87.60
2539;DHT22;1280;49.760;9.664;2022-10-16T06:28:57;17.80;87.60
2539;DHT22;1280;49.760;9.664;2022-10-16T06:31:27;17.80;87.60
2539;DHT22;1280;49.760;9.664;2022-10-16T06:33:58;17.80;87.70
2539;DHT22;1280;49.760;9.664;2022-10-16T06:36:26;17.80;87.60
2539;DHT22;1280;49.760;9.664;2022-10-16T06:38:54;17.80;87.60
2539;DHT22;1280;49.760;9.664;2022-10-16T06:41:23;17.80;87.60
2539;DHT22;1280;49.760;9.664;2022-10-16T06:43:52;17.80;87.50
2539;DHT22;1280;49.760;9.664;2022-10-16T06:46:22;17.80;87.50
2539;DHT22;1280;49.760;9.664;2022-10-16T06:48:50;17.80;87.60
2539;DHT22;1280;49.760;9.664;2022-10-16T06:51:19;17.80;87.60
2539;DHT22;1280;49.760;9.664;2022-10-16T06:53:49;17.80;87.60
2539;DHT22;1280;49.760;9.664;2022-10-16T06:56:30;17.80;87.50
2539;DHT22;1280;49.760;9.664;2022-10-16T06:59:00;17.80;87.30
2539;DHT22;1280;49.760;9.664;2022-10-16T07:01:29;17.80;87.30
2539;DHT22;1280;49.760;9.664;2022-10-16T07:03:57;17.80;87.50
2539;DHT22;1280;49.760;9.664;2022-10-16T07:06:26;17.80;87.50
2539;DHT22;1280;49.760;9.664;2022-10-16T07:08:54;17.80;87.50
2539;DHT22;1280;49.760;9.664;2022-10-16T07:11:23;17.80;87.50
2539;DHT22;1280;49.760;9.664;2022-10-16T07:13:52;17.80;87.50
2539;DHT22;1280;49.760;9.664;2022-10-16T07:16:25;17.80;87.50
2539;DHT22;1280;49.760;9.664;2022-10-16T07:18:54;17.80;87.30
2539;DHT22;1280;49.760;9.664;2022-10-16T07:21:26;17.80;87.50
2539;DHT22;1280;49.760;9.664;2022-10-16T07:23:56;17.80;87.50
2539;DHT22;1280;49.760;9.664;2022-10-16T07:26:26;17.80;87.50
2539;DHT22;1280;49.760;9.664;2022-10-16T07:28:54;17.80;87.60
2539;DHT22;1280;49.760;9.664;2022-10-16T07:31:25;17.80;87.60
2539;DHT22;1280;49.760;9.664;2022-10-16T07:33:53;17.80;87.70
2539;DHT22;1280;49.760;9.664;2022-10-16T07:36:21;17.80;87.80
2539;DHT22;1280;49.760;9.664;2022-10-16T07:38:49;17.80;87.90
2539;DHT22;1280;49.760;9.664;2022-10-16T07:41:23;17.80;87.90
2539;DHT22;1280;49.760;9.664;2022-10-16T07:43:52;17.90;88.00
2539;DHT22;1280;49.760;9.664;2022-10-16T07:46:22;17.90;87.80
2539;DHT22;1280;49.760;9.664;2022-10-16T07:48:51;17.90;87.90
2539;DHT22;1280;49.760;9.664;2022-10-16T07:51:21;17.90;87.90
2539;DHT22;1280;49.760;9.664;2022-10-16T07:53:49;17.90;87.90
2539;DHT22;1280;49.760;9.664;2022-10-16T07:56:18;18.00;88.00
2539;DHT22;1280;49.760;9.664;2022-10-16T07:58:46;18.00;87.90
2539;DHT22;1280;49.760;9.664;2022-10-16T08:01:16;18.00;88.00
2539;DHT22;1280;49.760;9.664;2022-10-16T08:03:46;18.00;88.00
2539;DHT22;1280;49.760;9.664;2022-10-16T08:06:16;18.00;88.00
2539;DHT22;1280;49.760;9.664;2022-10-16T08:08:49;18.10;88.00
2539;DHT22;1280;49.760;9.664;2022-10-16T08:11:18;18.10;88.00
2539;DHT22;1280;49.760;9.664;2022-10-16T08:13:46;18.10;88.00
2539;DHT22;1280;49.760;9.664;2022-10-16T08:16:14;18.10;88.00
2539;DHT22;1280;49.760;9.664;2022-10-16T08:18:42;18.10;88.00
2539;DHT22;1280;49.760;9.664;2022-10-16T08:21:16;18.10;88.00
2539;DHT22;1280;49.760;9.664;2022-10-16T08:23:47;18.20;88.00
2539;DHT22;1280;49.760;9.664;2022-10-16T08:26:24;18.20;88.00
2539;DHT22;1280;49.760;9.664;2022-10-16T08:28:53;18.20;88.00
2539;DHT22;1280;49.760;9.664;2022-10-16T08:31:21;18.20;88.10
2539;DHT22;1280;49.760;9.664;2022-10-16T08:33:49;18.30;88.00
2539;DHT22;1280;49.760;9.664;2022-10-16T08:36:20;18.30;88.00
2539;DHT22;1280;49.760;9.664;2022-10-16T08:38:49;18.30;88.00
2539;DHT22;1280;49.760;9.664;2022-10-16T08:47:26;18.40;88.10
2539;DHT22;1280;49.760;9.664;2022-10-16T08:50:09;18.50;88.00
2539;DHT22;1280;49.760;9.664;2022-10-16T08:52:43;18.50;88.00
2539;DHT22;1280;49.760;9.664;2022-10-16T08:55:23;18.50;87.90
2539;DHT22;1280;49.760;9.664;2022-10-16T08:57:55;18.50;87.90
2539;DHT22;1280;49.760;9.664;2022-10-16T09:00:23;18.50;88.00
2539;DHT22;1280;49.760;9.664;2022-10-16T09:02:58;18.60;88.00
2539;DHT22;1280;49.760;9.664;2022-10-16T09:08:34;18.60;87.90
2539;DHT22;1280;49.760;9.664;2022-10-16T09:11:09;18.70;87.90
2539;DHT22;1280;49.760;9.664;2022-10-16T09:13:48;18.70;87.90
2539;DHT22;1280;49.760;9.664;2022-10-16T09:16:20;18.70;87.90
2539;DHT22;1280;49.760;9.664;2022-10-16T09:18:55;18.70;87.80
2539;DHT22;1280;49.760;9.664;2022-10-16T09:21:28;18.70;87.70
2539;DHT22;1280;49.760;9.664;2022-10-16T09:23:59;18.70;87.70
2539;DHT22;1280;49.760;9.664;2022-10-16T09:26:32;18.70;87.80
2539;DHT22;1280;49.760;9.664;2022-10-16T09:29:00;18.70;87.80
2539;DHT22;1280;49.760;9.664;2022-10-16T09:31:28;18.70;87.70
2539;DHT22;1280;49.760;9.664;2022-10-16T09:33:59;18.70;87.70
2539;DHT22;1280;49.760;9.664;2022-10-16T09:36:39;18.70;87.70
2539;DHT22;1280;49.760;9.664;2022-10-16T09:39:10;18.70;87.60
2539;DHT22;1280;49.760;9.664;2022-10-16T09:41:41;18.70;87.60
2539;DHT22;1280;49.760;9.664;2022-10-16T09:44:19;18.70;87.50
2539;DHT22;1280;49.760;9.664;2022-10-16T09:46:49;18.70;87.50
2539;DHT22;1280;49.760;9.664;2022-10-16T09:49:22;18.70;87.50
2539;DHT22;1280;49.760;9.664;2022-10-16T09:51:50;18.70;87.50
2539;DHT22;1280;49.760;9.664;2022-10-16T09:54:21;18.70;87.40
2539;DHT22;1280;49.760;9.664;2022-10-16T09:56:49;18.70;87.50
2539;DHT22;1280;49.760;9.664;2022-10-16T09:59:20;18.70;87.50
2539;DHT22;1280;49.760;9.664;2022-10-16T10:01:52;18.60;87.50
2539;DHT22;1280;49.760;9.664;2022-10-16T10:04:22;18.60;87.50
2539;DHT22;1280;49.760;9.664;2022-10-16T10:06:51;18.60;87.60
2539;DHT22;1280;49.760;9.664;2022-10-16T10:09:24;18.60;87.60
2539;DHT22;1280;49.760;9.664;2022-10-16T10:11:54;18.60;87.50
2539;DHT22;1280;49.760;9.664;2022-10-16T10:14:25;18.60;87.60
2539;DHT22;1280;49.760;9.664;2022-10-16T10:17:13;18.60;87.60
2539;DHT22;1280;49.760;9.664;2022-10-16T10:19:47;18.50;87.60
2539;DHT22;1280;49.760;9.664;2022-10-16T10:22:24;18.50;87.70
2539;DHT22;1280;49.760;9.664;2022-10-16T10:25:14;18.50;87.70
2539;DHT22;1280;49.760;9.664;2022-10-16T10:28:01;18.50;87.80
2539;DHT22;1280;49.760;9.664;2022-10-16T10:30:38;18.50;87.80
2539;DHT22;1280;49.760;9.664;2022-10-16T10:33:20;18.50;88.00
2539;DHT22;1280;49.760;9.664;2022-10-16T10:35:56;18.50;88.20
2539;DHT22;1280;49.760;9.664;2022-10-16T10:38:38;18.60;88.30
2539;DHT22;1280;49.760;9.664;2022-10-16T10:41:20;18.60;88.40
2539;DHT22;1280;49.760;9.664;2022-10-16T10:44:03;18.60;88.40
2539;DHT22;1280;49.760;9.664;2022-10-16T10:46:36;18.70;88.40
2539;DHT22;1280;49.760;9.664;2022-10-16T10:52:12;18.70;88.60
2539;DHT22;1280;49.760;9.664;2022-10-16T10:54:47;18.80;88.60
2539;DHT22;1280;49.760;9.664;2022-10-16T10:57:25;18.80;88.60
2539;DHT22;1280;49.760;9.664;2022-10-16T11:00:06;18.90;88.80
2539;DHT22;1280;49.760;9.664;2022-10-16T11:02:41;18.90;88.60
2539;DHT22;1280;49.760;9.664;2022-10-16T11:05:34;19.00;88.60
2539;DHT22;1280;49.760;9.664;2022-10-16T11:08:11;19.00;88.60
2539;DHT22;1280;49.760;9.664;2022-10-16T11:10:47;19.00;88.60
2539;DHT22;1280;49.760;9.664;2022-10-16T11:13:23;19.00;88.60
2539;DHT22;1280;49.760;9.664;2022-10-16T11:15:57;19.00;88.80
2539;DHT22;1280;49.760;9.664;2022-10-16T11:18:30;19.10;88.70
2539;DHT22;1280;49.760;9.664;2022-10-16T11:21:05;19.10;88.80
2539;DHT22;1280;49.760;9.664;2022-10-16T11:23:40;19.10;88.90
2539;DHT22;1280;49.760;9.664;2022-10-16T11:26:13;19.20;89.10
2539;DHT22;1280;49.760;9.664;2022-10-16T11:28:46;19.20;89.10
2539;DHT22;1280;49.760;9.664;2022-10-16T11:31:18;19.30;89.10
2539;DHT22;1280;49.760;9.664;2022-10-16T11:33:51;19.30;89.20
2539;DHT22;1280;49.760;9.664;2022-10-16T11:36:25;19.30;89.10
2539;DHT22;1280;49.760;9.664;2022-10-16T11:39:00;19.40;89.20
2539;DHT22;1280;49.760;9.664;2022-10-16T11:41:34;19.50;89.10
2539;DHT22;1280;49.760;9.664;2022-10-16T11:44:34;19.50;89.00
2539;DHT22;1280;49.760;9.664;2022-10-16T11:47:13;19.50;88.80
2539;DHT22;1280;49.760;9.664;2022-10-16T11:50:09;19.60;88.80
2539;DHT22;1280;49.760;9.664;2022-10-16T11:52:46;19.60;88.80
2539;DHT22;1280;49.760;9.664;2022-10-16T11:55:18;19.60;88.80
2539;DHT22;1280;49.760;9.664;2022-10-16T11:57:49;19.60;88.80
2539;DHT22;1280;49.760;9.664;2022-10-16T12:00:24;19.70;88.80
2539;DHT22;1280;49.760;9.664;2022-10-16T12:03:00;19.70;88.80
2539;DHT22;1280;49.760;9.664;2022-10-16T12:05:39;19.80;88.80
2539;DHT22;1280;49.760;9.664;2022-10-16T12:08:15;19.80;88.80
2539;DHT22;1280;49.760;9.664;2022-10-16T12:10:46;19.80;88.80
2539;DHT22;1280;49.760;9.664;2022-10-16T12:13:30;19.90;88.80
2539;DHT22;1280;49.760;9.664;2022-10-16T12:16:21;19.90;88.80
2539;DHT22;1280;49.760;9.664;2022-10-16T12:19:03;20.00;88.60
2539;DHT22;1280;49.760;9.664;2022-10-16T12:21:37;20.00;88.50
2539;DHT22;1280;49.760;9.664;2022-10-16T12:24:05;20.00;88.50
2539;DHT22;1280;49.760;9.664;2022-10-16T12:26:38;20.00;88.50
2539;DHT22;1280;49.760;9.664;2022-10-16T12:29:14;20.00;88.40
2539;DHT22;1280;49.760;9.664;2022-10-16T12:31:52;20.10;88.50
2539;DHT22;1280;49.760;9.664;2022-10-16T12:34:28;20.10;88.60
2539;DHT22;1280;49.760;9.664;2022-10-16T12:37:08;20.20;88.50
2539;DHT22;1280;49.760;9.664;2022-10-16T12:39:37;20.20;88.40
2539;DHT22;1280;49.760;9.664;2022-10-16T12:42:21;20.30;88.50
2539;DHT22;1280;49.760;9.664;2022-10-16T12:44:51;20.30;88.40
2539;DHT22;1280;49.760;9.664;2022-10-16T12:47:22;20.40;88.30
2539;DHT22;1280;49.760;9.664;2022-10-16T12:49:52;20.40;88.10
2539;DHT22;1280;49.760;9.664;2022-10-16T12:52:27;20.40;88.00
2539;DHT22;1280;49.760;9.664;2022-10-16T12:54:57;20.40;88.00
2539;DHT22;1280;49.760;9.664;2022-10-16T12:57:40;20.50;87.90
2539;DHT22;1280;49.760;9.664;2022-10-16T13:00:21;20.50;88.10
2539;DHT22;1280;49.760;9.664;2022-10-16T13:03:20;20.60;88.10
2539;DHT22;1280;49.760;9.664;2022-10-16T13:06:03;20.70;87.90
2539;DHT22;1280;49.760;9.664;2022-10-16T13:08:46;20.80;87.60
2539;DHT22;1280;49.760;9.664;2022-10-16T13:11:25;20.80;87.10
2539;DHT22;1280;49.760;9.664;2022-10-16T13:14:14;20.80;86.80
2539;DHT22;1280;49.760;9.664;2022-10-16T13:16:52;20.80;86.70
2539;DHT22;1280;49.760;9.664;2022-10-16T13:19:31;20.90;86.50
2539;DHT22;1280;49.760;9.664;2022-10-16T13:22:10;20.90;86.30
2539;DHT22;1280;49.760;9.664;2022-10-16T13:24:54;20.90;86.10
2539;DHT22;1280;49.760;9.664;2022-10-16T13:27:33;20.90;85.90
2539;DHT22;1280;49.760;9.664;2022-10-16T13:30:12;20.90;85.80
2539;DHT22;1280;49.760;9.664;2022-10-16T13:32:45;20.80;85.70
2539;DHT22;1280;49.760;9.664;2022-10-16T13:35:24;20.80;85.60
2539;DHT22;1280;49.760;9.664;2022-10-16T13:38:04;20.80;85.40
2539;DHT22;1280;49.760;9.664;2022-10-16T13:40:32;20.80;85.30
2539;DHT22;1280;49.760;9.664;2022-10-16T13:43:01;20.70;85.30
2539;DHT22;1280;49.760;9.664;2022-10-16T13:45:29;20.70;85.20
2539;DHT22;1280;49.760;9.664;2022-10-16T13:48:04;20.70;85.10
2539;DHT22;1280;49.760;9.664;2022-10-16T13:50:34;20.70;85.10
2539;DHT22;1280;49.760;9.664;2022-10-16T13:53:05;20.70;85.00
2539;DHT22;1280;49.760;9.664;2022-10-16T13:55:34;20.70;84.90
2539;DHT22;1280;49.760;9.664;2022-10-16T13:58:06;20.60;84.90
2539;DHT22;1280;49.760;9.664;2022-10-16T14:00:35;20.60;85.00
2539;DHT22;1280;49.760;9.664;2022-10-16T14:03:05;20.60;85.00
2539;DHT22;1280;49.760;9.664;2022-10-16T14:05:42;20.60;85.00
2539;DHT22;1280;49.760;9.664;2022-10-16T14:08:12;20.60;85.10
2539;DHT22;1280;49.760;9.664;2022-10-16T14:10:40;20.70;85.20
2539;DHT22;1280;49.760;9.664;2022-10-16T14:13:16;20.70;85.10
2539;DHT22;1280;49.760;9.664;2022-10-16T14:15:47;20.80;85.00
2539;DHT22;1280;49.760;9.664;2022-10-16T14:18:20;20.80;84.90
2539;DHT22;1280;49.760;9.664;2022-10-16T14:20:50;20.80;84.70
2539;DHT22;1280;49.760;9.664;2022-10-16T14:23:21;20.80;84.70
2539;DHT22;1280;49.760;9.664;2022-10-16T14:25:50;20.80;84.50
2539;DHT22;1280;49.760;9.664;2022-10-16T14:28:20;20.80;84.50
2539;DHT22;1280;49.760;9.664;2022-10-16T14:30:54;20.80;84.40
2539;DHT22;1280;49.760;9.664;2022-10-16T14:33:23;20.80;84.30
2539;DHT22;1280;49.760;9.664;2022-10-16T14:36:03;20.80;84.20
2539;DHT22;1280;49.760;9.664;2022-10-16T14:38:33;20.70;84.00
2539;DHT22;1280;49.760;9.664;2022-10-16T14:41:01;20.70;84.10
2539;DHT22;1280;49.760;9.664;2022-10-16T14:43:33;20.70;84.10
2539;DHT22;1280;49.760;9.664;2022-10-16T14:46:03;20.60;84.00
2539;DHT22;1280;49.760;9.664;2022-10-16T14:48:33;20.60;84.00
2539;DHT22;1280;49.760;9.664;2022-10-16T14:51:04;20.60;84.10
2539;DHT22;1280;49.760;9.664;2022-10-16T14:53:32;20.60;84.10
2539;DHT22;1280;49.760;9.664;2022-10-16T14:56:06;20.50;84.20
2539;DHT22;1280;49.760;9.664;2022-10-16T14:58:35;20.50;84.30
2539;DHT22;1280;49.760;9.664;2022-10-16T15:01:03;20.50;84.20
2539;DHT22;1280;49.760;9.664;2022-10-16T15:03:33;20.50;84.20
2539;DHT22;1280;49.760;9.664;2022-10-16T15:06:03;20.50;84.20
2539;DHT22;1280;49.760;9.664;2022-10-16T15:08:31;20.40;84.20
2539;DHT22;1280;49.760;9.664;2022-10-16T15:10:58;20.40;84.30
2539;DHT22;1280;49.760;9.664;2022-10-16T15:13:26;20.40;84.40
2539;DHT22;1280;49.760;9.664;2022-10-16T15:15:55;20.40;84.40
2539;DHT22;1280;49.760;9.664;2022-10-16T15:18:23;20.40;84.40
2539;DHT22;1280;49.760;9.664;2022-10-16T15:20:51;20.30;84.40
2539;DHT22;1280;49.760;9.664;2022-10-16T15:23:21;20.30;84.50
2539;DHT22;1280;49.760;9.664;2022-10-16T15:25:51;20.30;84.50
2539;DHT22;1280;49.760;9.664;2022-10-16T15:28:21;20.30;84.50
2539;DHT22;1280;49.760;9.664;2022-10-16T15:30:51;20.20;84.60
2539;DHT22;1280;49.760;9.664;2022-10-16T15:33:21;20.20;84.60
2539;DHT22;1280;49.760;9.664;2022-10-16T15:35:50;20.20;84.60
2539;DHT22;1280;49.760;9.664;2022-10-16T15:38:22;20.20;84.60
2539;DHT22;1280;49.760;9.664;2022-10-16T15:40:50;20.20;84.60
2539;DHT22;1280;49.760;9.664;2022-10-16T15:43:18;20.10;84.60
2539;DHT22;1280;49.760;9.664;2022-10-16T15:45:59;20.10;84.60
2539;DHT22;1280;49.760;9.664;2022-10-16T15:48:28;20.10;84.50
2539;DHT22;1280;49.760;9.664;2022-10-16T15:50:56;20.10;84.60
2539;DHT22;1280;49.760;9.664;2022-10-16T15:53:25;20.10;84.60
2539;DHT22;1280;49.760;9.664;2022-10-16T15:55:53;20.00;84.60
2539;DHT22;1280;49.760;9.664;2022-10-16T15:58:21;20.00;84.70
2539;DHT22;1280;49.760;9.664;2022-10-16T16:00:54;20.00;84.70
2539;DHT22;1280;49.760;9.664;2022-10-16T16:03:23;20.00;84.70
2539;DHT22;1280;49.760;9.664;2022-10-16T16:05:51;20.00;84.80
2539;DHT22;1280;49.760;9.664;2022-10-16T16:08:19;19.90;84.90
2539;DHT22;1280;49.760;9.664;2022-10-16T16:10:58;19.90;85.00
2539;DHT22;1280;49.760;9.664;2022-10-16T16:13:27;19.90;85.00
2539;DHT22;1280;49.760;9.664;2022-10-16T16:15:55;19.90;85.00
2539;DHT22;1280;49.760;9.664;2022-10-16T16:18:23;19.90;85.10
2539;DHT22;1280;49.760;9.664;2022-10-16T16:20:52;19.90;85.10
2539;DHT22;1280;49.760;9.664;2022-10-16T16:23:20;19.90;85.10
2539;DHT22;1280;49.760;9.664;2022-10-16T16:26:04;19.90;85.10
2539;DHT22;1280;49.760;9.664;2022-10-16T16:28:32;19.90;85.10
2539;DHT22;1280;49.760;9.664;2022-10-16T16:31:01;19.90;85.10
2539;DHT22;1280;49.760;9.664;2022-10-16T16:33:29;19.80;85.10
2539;DHT22;1280;49.760;9.664;2022-10-16T16:35:57;19.90;85.10
2539;DHT22;1280;49.760;9.664;2022-10-16T16:38:26;19.90;85.00
2539;DHT22;1280;49.760;9.664;2022-10-16T16:40:54;19.80;84.90
2539;DHT22;1280;49.760;9.664;2022-10-16T16:43:24;19.80;84.90